createdAt,value
2019-04-21T00:01:00.466Z,37.33
2019-04-21T00:03:35.544Z,37.97
2019-04-21T00:06:18.368Z,37.73
2019-04-21T00:08:57.650Z,35.57
2019-04-21T00:13:46.794Z,31.23
2019-04-21T00:16:11.980Z,33.77
2019-04-21T00:19:08.130Z,35.83
2019-04-21T00:21:39.443Z,34.23
2019-04-21T00:24:23.928Z,34.13
2019-04-21T00:27:17.435Z,36.07
2019-04-21T00:29:40.878Z,35.77
2019-04-21T00:32:02.994Z,33.07
2019-04-21T00:34:19.606Z,36.53
2019-04-21T00:37:01.206Z,41.47
2019-04-21T00:39:49.606Z,40.07
2019-04-21T00:42:14.085Z,37.73
2019-04-21T00:44:38.086Z,35.73
2019-04-21T00:47:13.927Z,33.20
2019-04-21T00:49:53.969Z,31.83
2019-04-21T00:52:56.601Z,31.43
2019-04-21T00:58:00.028Z,33.60
2019-04-21T01:00:30.892Z,40.47
2019-04-21T01:03:06.697Z,51.63
2019-04-21T01:05:38.657Z,51.70
2019-04-21T01:08:04.879Z,47.60
2019-04-21T01:10:28.949Z,47.83
2019-04-21T01:13:09.643Z,48.60
2019-04-21T01:15:47.448Z,49.33
2019-04-21T01:18:16.633Z,46.97
2019-04-21T01:20:23.705Z,48.00
2019-04-21T01:22:53.812Z,46.00
2019-04-21T01:25:34.680Z,43.90
2019-04-21T01:28:13.609Z,43.53
2019-04-21T01:30:48.878Z,43.17
2019-04-21T01:33:21.930Z,40.87
2019-04-21T01:35:48.214Z,37.43
2019-04-21T01:38:32.594Z,38.80
2019-04-21T01:41:00.659Z,42.33
2019-04-21T01:43:27.786Z,39.93
2019-04-21T01:45:56.503Z,39.00
2019-04-21T01:48:27.267Z,37.07
2019-04-21T01:50:55.310Z,21.13
2019-04-21T01:53:48.336Z,18.50
2019-04-21T01:56:24.203Z,19.67
2019-04-21T01:58:46.470Z,20.30
2019-04-21T02:01:30.123Z,25.43
2019-04-21T02:04:15.412Z,30.43
2019-04-21T02:06:45.689Z,19.90
2019-04-21T02:09:02.243Z,20.10
2019-04-21T02:11:35.504Z,20.53
2019-04-21T02:14:11.812Z,19.60
2019-04-21T02:16:40.734Z,18.40
2019-04-21T02:19:04.813Z,15.23
2019-04-21T02:21:36.983Z,15.33
2019-04-21T02:24:23.560Z,15.77
2019-04-21T02:26:47.446Z,17.77
2019-04-21T02:29:21.844Z,18.00
2019-04-21T02:32:01.768Z,16.70
2019-04-21T02:34:37.987Z,15.33
2019-04-21T02:37:17.720Z,12.67
2019-04-21T02:42:05.406Z,11.90
2019-04-21T02:44:42.901Z,10.97
2019-04-21T02:47:12.229Z,10.43
2019-04-21T02:49:56.523Z,11.80
2019-04-21T03:00:00.134Z,8.37
2019-04-21T03:02:35.185Z,9.77
2019-04-21T03:05:21.152Z,22.00
2019-04-21T03:07:55.345Z,13.63
2019-04-21T03:10:25.709Z,18.13
2019-04-21T03:12:56.965Z,19.77
2019-04-21T03:15:31.517Z,16.23
2019-04-21T03:18:00.341Z,21.03
2019-04-21T03:20:36.199Z,21.87
2019-04-21T03:23:08.856Z,21.27
2019-04-21T03:25:43.225Z,20.40
2019-04-21T03:28:11.254Z,20.20
2019-04-21T03:31:12.220Z,19.87
2019-04-21T03:34:02.601Z,20.03
2019-04-21T03:36:12.846Z,17.63
2019-04-21T03:40:39.954Z,19.93
2019-04-21T03:43:20.271Z,19.90
2019-04-21T03:53:24.997Z,19.90
2019-04-21T03:58:39.470Z,19.67
2019-04-21T04:04:29.996Z,20.43
2019-04-21T04:12:12.487Z,14.47
2019-04-21T04:14:44.181Z,16.30
2019-04-21T04:17:16.765Z,21.23
2019-04-21T04:19:44.609Z,22.93
2019-04-21T04:22:27.070Z,22.40
2019-04-21T04:25:07.350Z,23.80
2019-04-21T04:30:04.303Z,30.60
2019-04-21T04:32:28.511Z,33.93
2019-04-21T04:35:14.514Z,35.97
2019-04-21T04:37:45.038Z,41.77
2019-04-21T04:40:10.523Z,39.83
2019-04-21T04:45:17.604Z,38.40
2019-04-21T04:47:46.654Z,36.93
2019-04-21T04:50:09.945Z,48.60
2019-04-21T04:52:58.683Z,39.33
2019-04-21T04:55:19.038Z,35.83
2019-04-21T04:58:04.680Z,35.30
2019-04-21T05:05:29.308Z,29.30
2019-04-21T05:08:16.584Z,22.83
2019-04-21T05:10:38.519Z,19.60
2019-04-21T05:13:02.305Z,20.87
2019-04-21T05:15:37.876Z,22.00
2019-04-21T05:20:37.026Z,23.90
2019-04-21T05:22:58.212Z,23.97
2019-04-21T05:25:30.666Z,21.03
2019-04-21T05:27:56.445Z,16.40
2019-04-21T05:30:45.077Z,13.10
2019-04-21T05:33:19.014Z,13.77
2019-04-21T05:35:52.024Z,35.67
2019-04-21T05:38:39.123Z,17.13
2019-04-21T05:41:00.195Z,14.50
2019-04-21T05:43:39.065Z,11.43
2019-04-21T05:46:13.367Z,11.43
2019-04-21T05:48:54.790Z,11.37
2019-04-21T05:51:22.256Z,11.23
2019-04-21T05:53:56.150Z,11.37
2019-04-21T05:56:30.627Z,13.13
2019-04-21T05:58:58.067Z,9.27
2019-04-21T06:01:50.323Z,10.80
2019-04-21T06:04:12.299Z,12.33
2019-04-21T06:06:43.700Z,10.73
2019-04-21T06:09:08.272Z,13.70
2019-04-21T06:11:40.708Z,13.63
2019-04-21T06:14:14.511Z,13.53
2019-04-21T06:16:54.335Z,12.70
2019-04-21T06:19:15.090Z,11.73
2019-04-21T06:21:45.460Z,12.30
2019-04-21T06:24:18.814Z,11.07
2019-04-21T06:27:04.923Z,10.83
2019-04-21T06:29:25.467Z,13.93
2019-04-21T06:34:41.428Z,11.80
2019-04-21T06:37:21.856Z,17.10
2019-04-21T06:39:52.593Z,9.47
2019-04-21T06:42:09.210Z,9.43
2019-04-21T06:44:54.167Z,9.10
2019-04-21T06:47:26.025Z,12.70
2019-04-21T06:49:45.806Z,8.63
2019-04-21T06:52:42.401Z,9.93
2019-04-21T06:54:56.068Z,8.50
2019-04-21T06:57:21.792Z,9.70
2019-04-21T06:59:51.053Z,8.97
2019-04-21T07:05:03.670Z,8.80
2019-04-21T07:07:33.534Z,8.57
2019-04-21T07:10:09.101Z,8.80
2019-04-21T07:12:28.695Z,8.73
2019-04-21T07:15:03.338Z,8.60
2019-04-21T07:17:32.535Z,8.63
2019-04-21T07:22:43.716Z,9.40
2019-04-21T07:25:16.661Z,10.13
2019-04-21T07:27:47.823Z,8.57
2019-04-21T07:30:23.089Z,9.43
2019-04-21T07:32:55.279Z,8.60
2019-04-21T07:35:31.688Z,7.63
2019-04-21T07:37:52.267Z,9.03
2019-04-21T07:40:17.394Z,9.43
2019-04-21T07:42:51.466Z,9.63
2019-04-21T07:45:22.734Z,8.87
2019-04-21T07:48:03.359Z,9.57
2019-04-21T07:50:38.232Z,9.37
2019-04-21T07:53:36.804Z,8.73
2019-04-21T07:55:41.094Z,9.30
2019-04-21T07:58:26.589Z,8.43
2019-04-21T08:01:07.032Z,8.10
2019-04-21T08:03:34.907Z,9.70
2019-04-21T08:06:05.009Z,8.70
2019-04-21T08:08:34.266Z,8.27
2019-04-21T08:11:07.404Z,6.97
2019-04-21T08:13:44.897Z,7.73
2019-04-21T08:16:17.503Z,16.80
2019-04-21T08:18:46.780Z,16.50
2019-04-21T08:21:19.623Z,6.90
2019-04-21T08:23:48.386Z,7.30
2019-04-21T08:26:13.838Z,8.13
2019-04-21T08:28:53.741Z,8.10
2019-04-21T08:31:34.440Z,7.00
2019-04-21T08:34:01.712Z,7.13
2019-04-21T08:36:27.699Z,8.07
2019-04-21T08:39:01.057Z,8.10
2019-04-21T08:41:31.346Z,7.80
2019-04-21T08:43:56.130Z,7.00
2019-04-21T08:46:38.696Z,7.27
2019-04-21T08:49:08.041Z,7.80
2019-04-21T08:51:39.600Z,7.20
2019-04-21T08:54:15.277Z,6.37
2019-04-21T08:57:06.152Z,6.73
2019-04-21T08:59:40.438Z,6.80
2019-04-21T09:02:16.252Z,6.43
2019-04-21T09:04:50.736Z,7.23
2019-04-21T09:09:55.849Z,6.80
2019-04-21T09:12:22.687Z,7.53
2019-04-21T09:14:54.235Z,7.67
2019-04-21T09:17:22.415Z,7.83
2019-04-21T09:20:04.005Z,7.80
2019-04-21T09:22:30.681Z,8.43
2019-04-21T09:24:55.731Z,7.00
2019-04-21T09:27:30.784Z,7.27
2019-04-21T09:29:52.359Z,7.43
2019-04-21T09:32:23.225Z,7.83
2019-04-21T09:34:52.426Z,7.20
2019-04-21T09:37:32.605Z,7.03
2019-04-21T09:39:55.937Z,6.80
2019-04-21T09:42:33.194Z,7.10
2019-04-21T09:45:00.649Z,7.30
2019-04-21T09:47:36.535Z,7.27
2019-04-21T09:50:01.868Z,7.10
2019-04-21T09:52:39.666Z,7.57
2019-04-21T09:55:10.267Z,6.57
2019-04-21T09:57:43.324Z,6.23
2019-04-21T10:00:15.154Z,6.90
2019-04-21T10:02:51.635Z,6.57
2019-04-21T10:05:12.560Z,6.67
2019-04-21T10:07:44.218Z,6.87
2019-04-21T10:10:15.017Z,5.23
2019-04-21T10:12:45.488Z,5.57
2019-04-21T10:15:16.526Z,5.27
2019-04-21T10:18:00.613Z,4.93
2019-04-21T10:20:30.925Z,5.73
2019-04-21T10:23:00.927Z,5.27
2019-04-21T10:25:30.962Z,5.23
2019-04-21T10:28:01.325Z,5.23
2019-04-21T10:30:31.380Z,4.77
2019-04-21T10:33:01.479Z,5.10
2019-04-21T10:35:32.870Z,4.87
2019-04-21T10:38:14.609Z,4.87
2019-04-21T10:40:37.129Z,4.87
2019-04-21T10:43:09.950Z,5.57
2019-04-21T10:45:39.181Z,5.50
2019-04-21T10:48:10.813Z,4.90
2019-04-21T10:50:41.237Z,5.60
2019-04-21T10:53:13.379Z,4.90
2019-04-21T10:56:00.364Z,5.33
2019-04-21T10:58:18.314Z,4.93
2019-04-21T11:00:52.845Z,4.73
2019-04-21T11:03:42.836Z,4.97
2019-04-21T11:06:14.809Z,5.00
2019-04-21T11:08:48.590Z,5.10
2019-04-21T11:11:16.654Z,5.20
2019-04-21T11:13:46.654Z,5.40
2019-04-21T11:16:17.260Z,5.30
2019-04-21T11:18:48.292Z,4.73
2019-04-21T11:21:18.787Z,5.43
2019-04-21T11:23:50.030Z,5.93
2019-04-21T11:26:20.159Z,5.63
2019-04-21T11:28:50.546Z,5.17
2019-04-21T11:31:20.956Z,5.77
2019-04-21T11:33:51.271Z,5.70
2019-04-21T11:36:21.630Z,5.53
2019-04-21T11:39:22.839Z,7.70
2019-04-21T11:41:41.634Z,22.07
2019-04-21T11:44:12.111Z,8.63
2019-04-21T11:46:42.619Z,6.30
2019-04-21T11:49:12.862Z,5.63
2019-04-21T11:51:42.935Z,10.40
2019-04-21T11:54:13.059Z,6.10
2019-04-21T11:56:43.255Z,7.90
2019-04-21T11:59:13.476Z,5.30
2019-04-21T12:01:43.588Z,5.97
2019-04-21T12:04:13.929Z,6.77
2019-04-21T12:06:47.242Z,10.57
2019-04-21T12:09:16.800Z,5.40
2019-04-21T12:11:47.406Z,5.73
2019-04-21T12:14:18.338Z,11.93
2019-04-21T12:16:49.305Z,7.97
2019-04-21T12:19:20.532Z,6.57
2019-04-21T12:22:02.392Z,5.33
2019-04-21T12:24:24.892Z,18.93
2019-04-21T12:26:56.006Z,4.10
2019-04-21T12:29:26.952Z,9.33
2019-04-21T12:31:59.426Z,5.63
2019-04-21T12:34:30.179Z,6.40
2019-04-21T12:37:01.170Z,6.07
2019-04-21T12:39:32.720Z,5.13
2019-04-21T12:42:04.634Z,6.73
2019-04-21T12:44:34.922Z,7.40
2019-04-21T12:47:05.841Z,6.97
2019-04-21T12:49:36.008Z,6.10
2019-04-21T12:52:06.184Z,6.17
2019-04-21T12:54:37.646Z,5.90
2019-04-21T12:57:07.882Z,5.90
2019-04-21T12:59:39.509Z,6.07
2019-04-21T13:02:09.730Z,5.00
2019-04-21T13:04:40.100Z,5.93
2019-04-21T13:07:10.183Z,7.50
2019-04-21T13:09:40.287Z,7.03
2019-04-21T13:12:11.070Z,7.13
2019-04-21T13:14:42.105Z,8.57
2019-04-21T13:17:13.121Z,6.90
2019-04-21T13:19:43.622Z,8.57
2019-04-21T13:22:14.124Z,5.87
2019-04-21T13:24:44.353Z,5.87
2019-04-21T13:27:15.607Z,6.03
2019-04-21T13:29:46.269Z,6.60
2019-04-21T13:32:16.557Z,5.53
2019-04-21T13:34:47.792Z,5.60
2019-04-21T13:37:19.388Z,5.30
2019-04-21T13:40:13.145Z,5.97
2019-04-21T13:42:36.237Z,6.07
2019-04-21T13:45:00.933Z,4.93
2019-04-21T13:47:30.855Z,4.90
2019-04-21T13:50:02.895Z,4.30
2019-04-21T13:52:33.156Z,5.20
2019-04-21T13:55:03.475Z,4.70
2019-04-21T13:57:34.625Z,4.63
2019-04-21T14:00:09.150Z,5.40
2019-04-21T14:02:40.656Z,2.90
2019-04-21T14:05:13.493Z,5.17
2019-04-21T14:07:44.019Z,5.00
2019-04-21T14:10:16.094Z,6.90
2019-04-21T14:12:46.921Z,4.80
2019-04-21T14:15:20.133Z,5.43
2019-04-21T14:17:50.919Z,6.80
2019-04-21T14:20:21.573Z,4.73
2019-04-21T14:22:51.986Z,5.27
2019-04-21T14:25:22.138Z,5.63
2019-04-21T14:27:53.983Z,8.07
2019-04-21T14:30:24.364Z,7.93
2019-04-21T14:32:54.385Z,4.10
2019-04-21T14:35:25.137Z,4.40
2019-04-21T14:37:56.555Z,4.53
2019-04-21T14:40:29.495Z,5.23
2019-04-21T14:42:58.431Z,4.53
2019-04-21T14:45:34.541Z,4.30
2019-04-21T14:48:09.253Z,4.70
2019-04-21T14:50:42.042Z,6.30
2019-04-21T14:53:16.462Z,4.63
2019-04-21T14:55:46.853Z,5.83
2019-04-21T14:58:17.197Z,4.20
2019-04-21T15:00:59.940Z,4.03
2019-04-21T15:03:30.102Z,4.30
2019-04-21T15:06:01.113Z,3.67
2019-04-21T15:08:31.384Z,3.50
2019-04-21T15:11:01.499Z,3.77
2019-04-21T15:13:32.322Z,4.23
2019-04-21T15:16:02.769Z,4.47
2019-04-21T15:18:32.868Z,3.93
2019-04-21T15:21:03.756Z,3.50
2019-04-21T15:23:34.003Z,4.10
2019-04-21T15:26:04.260Z,4.13
2019-04-21T15:28:36.970Z,3.80
2019-04-21T15:31:05.869Z,3.97
2019-04-21T15:33:36.965Z,4.20
2019-04-21T15:36:07.180Z,4.70
2019-04-21T15:38:38.080Z,3.90
2019-04-21T15:41:10.602Z,4.10
2019-04-21T15:43:40.561Z,4.00
2019-04-21T15:46:11.025Z,4.23
2019-04-21T15:48:41.308Z,5.17
2019-04-21T15:51:11.308Z,3.70
2019-04-21T15:53:43.851Z,3.70
2019-04-21T15:56:17.227Z,3.80
2019-04-21T15:59:01.148Z,4.20
2019-04-21T16:01:36.604Z,4.40
2019-04-21T16:04:08.027Z,3.97
2019-04-21T16:06:39.310Z,4.50
2019-04-21T16:09:14.989Z,4.13
2019-04-21T16:11:42.198Z,4.90
2019-04-21T16:14:12.154Z,4.47
2019-04-21T16:16:43.264Z,3.50
2019-04-21T16:19:14.321Z,4.53
2019-04-21T16:21:46.438Z,4.47
2019-04-21T16:24:16.450Z,5.10
2019-04-21T16:26:46.914Z,4.10
2019-04-21T16:29:17.404Z,4.90
2019-04-21T16:31:48.919Z,7.53
2019-04-21T16:34:19.919Z,22.23
2019-04-21T16:36:50.066Z,8.97
2019-04-21T16:39:20.010Z,14.87
2019-04-21T16:41:50.094Z,12.13
2019-04-21T16:44:20.977Z,13.57
2019-04-21T16:46:51.669Z,19.00
2019-04-21T16:49:22.084Z,12.50
2019-04-21T16:51:54.025Z,11.10
2019-04-21T16:54:26.229Z,6.20
2019-04-21T16:57:15.293Z,6.40
2019-04-21T16:59:48.488Z,7.67
2019-04-21T17:02:18.736Z,7.03
2019-04-21T17:04:48.685Z,8.70
2019-04-21T17:07:19.908Z,7.40
2019-04-21T17:09:50.696Z,7.03
2019-04-21T17:12:22.752Z,6.90
2019-04-21T17:15:08.711Z,5.83
2019-04-21T17:17:47.496Z,5.70
2019-04-21T17:20:11.630Z,6.03
2019-04-21T17:22:28.004Z,5.77
2019-04-21T17:24:58.553Z,7.73
2019-04-21T17:27:31.217Z,8.37
2019-04-21T17:30:04.237Z,8.60
2019-04-21T17:32:40.115Z,9.17
2019-04-21T17:35:12.157Z,21.33
2019-04-21T17:37:45.589Z,12.33
2019-04-21T17:40:26.333Z,16.37
2019-04-21T17:43:12.655Z,161.53
2019-04-21T17:45:44.812Z,182.17
2019-04-21T17:48:34.906Z,62.63
2019-04-21T17:51:21.328Z,15.73
2019-04-21T17:54:13.534Z,16.23
2019-04-21T17:58:22.079Z,29.53
2019-04-21T18:00:28.782Z,33.60
2019-04-21T18:02:53.440Z,10.90
2019-04-21T18:05:31.965Z,9.57
2019-04-21T18:08:07.056Z,11.27
2019-04-21T18:10:45.669Z,6.40
2019-04-21T18:13:41.955Z,6.90
2019-04-21T18:16:25.099Z,13.10
2019-04-21T18:18:50.667Z,17.60
2019-04-21T18:21:24.909Z,19.33
2019-04-21T18:24:07.400Z,36.53
2019-04-21T18:26:40.615Z,27.87
2019-04-21T18:29:18.644Z,19.60
2019-04-21T18:31:57.988Z,17.17
2019-04-21T18:34:44.298Z,13.47
2019-04-21T18:37:27.111Z,17.60
2019-04-21T18:40:03.748Z,11.70
2019-04-21T18:43:38.339Z,13.53
2019-04-21T18:49:00.639Z,13.30
2019-04-21T18:51:58.702Z,13.27
2019-04-21T18:54:41.763Z,15.23
2019-04-21T18:57:17.196Z,16.37
2019-04-21T18:59:47.663Z,16.27
2019-04-21T19:02:22.349Z,17.57
2019-04-21T19:04:59.752Z,23.83
2019-04-21T19:07:48.023Z,24.23
2019-04-21T19:13:19.898Z,27.30
2019-04-21T19:15:30.034Z,26.37
2019-04-21T19:18:32.521Z,51.43
2019-04-21T19:20:50.334Z,142.50
2019-04-21T19:23:04.568Z,20.83
2019-04-21T19:25:42.603Z,178.73
2019-04-21T19:28:16.363Z,89.67
2019-04-21T19:30:57.650Z,224.63
2019-04-21T19:33:28.530Z,124.27
2019-04-21T19:35:45.599Z,193.43
2019-04-21T19:38:30.572Z,143.73
2019-04-21T19:41:10.420Z,185.23
2019-04-21T19:43:45.715Z,528.20
2019-04-21T19:46:19.345Z,492.43
2019-04-21T19:48:59.120Z,269.63
2019-04-21T19:51:18.048Z,289.23
2019-04-21T19:53:48.087Z,92.03
2019-04-21T19:56:11.984Z,215.63
2019-04-21T19:58:47.583Z,205.90
2019-04-21T20:01:21.350Z,150.73
2019-04-21T20:03:57.126Z,178.70
2019-04-21T20:06:43.993Z,131.43
2019-04-21T20:09:19.897Z,46.60
2019-04-21T20:11:44.403Z,31.20
2019-04-21T20:14:44.845Z,18.67
2019-04-21T20:16:53.122Z,23.90
2019-04-21T20:19:15.209Z,98.10
2019-04-21T20:21:45.117Z,75.93
2019-04-21T20:24:24.417Z,81.87
2019-04-21T20:27:02.232Z,66.97
2019-04-21T20:29:56.162Z,91.80
2019-04-21T20:32:36.263Z,37.83
2019-04-21T20:35:07.061Z,21.53
2019-04-21T20:37:31.696Z,20.57
2019-04-21T20:39:58.469Z,22.93
2019-04-21T20:42:40.334Z,26.80
2019-04-21T20:45:28.866Z,24.47
2019-04-21T20:47:34.961Z,21.50
2019-04-21T20:50:17.701Z,12.53
2019-04-21T20:52:53.797Z,11.07
2019-04-21T20:55:20.048Z,16.80
2019-04-21T20:57:53.775Z,18.17
2019-04-21T21:00:32.641Z,20.70
2019-04-21T21:03:15.254Z,17.50
2019-04-21T21:05:37.629Z,16.17
2019-04-21T21:08:21.061Z,12.67
2019-04-21T21:10:49.238Z,8.67
2019-04-21T21:13:30.045Z,9.10
2019-04-21T21:16:09.534Z,10.63
2019-04-21T21:18:38.026Z,10.87
2019-04-21T21:21:06.659Z,6.67
2019-04-21T21:26:15.965Z,5.33
2019-04-21T21:28:39.083Z,7.03
2019-04-21T21:31:13.000Z,6.43
2019-04-21T21:34:08.207Z,3.90
2019-04-21T21:36:27.292Z,5.33
2019-04-21T21:39:01.220Z,4.37
2019-04-21T21:41:26.508Z,12.77
2019-04-21T21:44:01.839Z,13.80
2019-04-21T21:46:41.651Z,9.37
2019-04-21T21:49:07.590Z,7.00
2019-04-21T21:51:44.990Z,18.83
2019-04-21T21:54:03.090Z,5.73
2019-04-21T21:56:36.518Z,5.47
2019-04-21T21:59:16.035Z,5.40
2019-04-21T22:01:46.990Z,5.30
2019-04-21T22:04:20.804Z,5.13
2019-04-21T22:06:55.383Z,3.97
2019-04-21T22:09:18.588Z,4.10
2019-04-21T22:11:53.584Z,4.23
2019-04-21T22:14:25.904Z,3.70
2019-04-21T22:17:10.965Z,3.80
2019-04-21T22:19:48.902Z,4.07
2019-04-21T22:22:15.612Z,4.43
2019-04-21T22:24:43.982Z,5.23
2019-04-21T22:26:59.243Z,5.47
2019-04-21T22:29:37.837Z,4.90
2019-04-21T22:32:09.494Z,4.20
2019-04-21T22:34:38.690Z,4.23
2019-04-21T22:37:21.188Z,3.87
2019-04-21T22:39:56.904Z,4.80
2019-04-21T22:42:17.330Z,5.17
2019-04-21T22:44:40.619Z,7.47
2019-04-21T22:47:16.910Z,7.20
2019-04-21T22:49:42.563Z,6.10
2019-04-21T22:52:18.713Z,6.00
2019-04-21T22:54:46.660Z,5.23
2019-04-21T22:57:19.861Z,5.57
2019-04-21T22:59:55.201Z,5.53
2019-04-21T23:02:25.914Z,5.40
2019-04-21T23:04:57.633Z,4.90
2019-04-21T23:07:25.349Z,4.97
2019-04-21T23:09:55.552Z,4.97
2019-04-21T23:12:30.693Z,5.37
2019-04-21T23:15:04.347Z,4.73
2019-04-21T23:17:50.677Z,5.10
2019-04-21T23:20:25.680Z,4.57
2019-04-21T23:23:00.906Z,5.07
2019-04-21T23:25:25.108Z,4.50
2019-04-21T23:27:56.285Z,5.40
2019-04-21T23:30:33.992Z,4.87
2019-04-21T23:32:51.394Z,5.00
2019-04-21T23:35:21.807Z,5.10
2019-04-21T23:37:55.728Z,5.10
2019-04-21T23:40:21.505Z,4.63
2019-04-21T23:42:49.474Z,5.67
2019-04-21T23:45:27.432Z,5.30
2019-04-21T23:48:01.677Z,6.13
2019-04-21T23:50:34.312Z,4.87
2019-04-21T23:52:55.413Z,4.83
2019-04-21T23:55:25.609Z,5.60
2019-04-21T23:58:06.166Z,5.93
